sensor_id;sensor_type;location;lat;lon;timestamp;pressure;altitude;pressure_sealevel;temperature;humidity
70254;BME280;57649;42.968;1.608;2023-12-14T00:01:31;97054.00;;;7.13;100.00
70254;BME280;57649;42.968;1.608;2023-12-14T00:03:57;97075.25;;;6.06;100.00
70254;BME280;57649;42.968;1.608;2023-12-14T00:06:22;97076.69;;;4.76;100.00
70254;BME280;57649;42.968;1.608;2023-12-14T00:08:47;97119.50;;;4.72;100.00
70254;BME280;57649;42.968;1.608;2023-12-14T00:11:13;97096.63;;;4.71;100.00
70254;BME280;57649;42.968;1.608;2023-12-14T00:13:38;97110.72;;;4.81;100.00
70254;BME280;57649;42.968;1.608;2023-12-14T00:16:05;97105.84;;;4.96;100.00
70254;BME280;57649;42.968;1.608;2023-12-14T00:18:31;97122.03;;;5.12;100.00
70254;BME280;57649;42.968;1.608;2023-12-14T00:20:56;97116.56;;;5.24;100.00
70254;BME280;57649;42.968;1.608;2023-12-14T00:23:25;97102.06;;;5.28;100.00
70254;BME280;57649;42.968;1.608;2023-12-14T00:25:51;97112.50;;;5.39;100.00
70254;BME280;57649;42.968;1.608;2023-12-14T00:28:16;97106.84;;;5.62;100.00
70254;BME280;57649;42.968;1.608;2023-12-14T00:30:41;97103.78;;;5.66;100.00
70254;BME280;57649;42.968;1.608;2023-12-14T00:33:07;97122.94;;;5.50;100.00
70254;BME280;57649;42.968;1.608;2023-12-14T00:35:32;97105.56;;;5.66;100.00
70254;BME280;57649;42.968;1.608;2023-12-14T00:37:58;97117.56;;;5.79;100.00
70254;BME280;57649;42.968;1.608;2023-12-14T00:40:23;97110.41;;;5.80;100.00
70254;BME280;57649;42.968;1.608;2023-12-14T00:42:50;97115.84;;;5.88;100.00
70254;BME280;57649;42.968;1.608;2023-12-14T00:45:15;97112.78;;;5.83;100.00
70254;BME280;57649;42.968;1.608;2023-12-14T00:47:41;97113.34;;;5.87;100.00
70254;BME280;57649;42.968;1.608;2023-12-14T00:50:06;97109.13;;;5.84;100.00
70254;BME280;57649;42.968;1.608;2023-12-14T00:52:32;97116.38;;;6.02;100.00
70254;BME280;57649;42.968;1.608;2023-12-14T00:54:58;97118.84;;;6.13;100.00
70254;BME280;57649;42.968;1.608;2023-12-14T00:57:23;97121.38;;;6.14;100.00
70254;BME280;57649;42.968;1.608;2023-12-14T00:59:48;97131.41;;;6.21;100.00
70254;BME280;57649;42.968;1.608;2023-12-14T01:02:14;97140.38;;;6.20;100.00
70254;BME280;57649;42.968;1.608;2023-12-14T01:04:39;97131.78;;;6.26;100.00
70254;BME280;57649;42.968;1.608;2023-12-14T01:07:05;97145.03;;;6.35;100.00
70254;BME280;57649;42.968;1.608;2023-12-14T01:09:30;97151.16;;;6.46;100.00
70254;BME280;57649;42.968;1.608;2023-12-14T01:11:56;97148.19;;;6.49;100.00
70254;BME280;57649;42.968;1.608;2023-12-14T01:14:21;97138.69;;;6.46;100.00
70254;BME280;57649;42.968;1.608;2023-12-14T01:16:47;97160.94;;;6.45;100.00
70254;BME280;57649;42.968;1.608;2023-12-14T01:19:12;97159.88;;;6.38;100.00
70254;BME280;57649;42.968;1.608;2023-12-14T01:21:38;97163.91;;;6.42;100.00
70254;BME280;57649;42.968;1.608;2023-12-14T01:24:03;97163.16;;;6.50;100.00
70254;BME280;57649;42.968;1.608;2023-12-14T01:26:29;97166.34;;;6.53;100.00
70254;BME280;57649;42.968;1.608;2023-12-14T01:28:54;97178.34;;;6.40;100.00
70254;BME280;57649;42.968;1.608;2023-12-14T01:31:20;97194.50;;;6.56;100.00
70254;BME280;57649;42.968;1.608;2023-12-14T01:33:49;97186.88;;;6.61;100.00
70254;BME280;57649;42.968;1.608;2023-12-14T01:36:25;97191.91;;;6.64;100.00
70254;BME280;57649;42.968;1.608;2023-12-14T01:38:51;97202.31;;;6.58;100.00
70254;BME280;57649;42.968;1.608;2023-12-14T01:41:17;97221.91;;;6.57;100.00
70254;BME280;57649;42.968;1.608;2023-12-14T01:43:42;97215.16;;;6.62;100.00
70254;BME280;57649;42.968;1.608;2023-12-14T01:46:08;97224.84;;;6.63;100.00
70254;BME280;57649;42.968;1.608;2023-12-14T01:48:34;97224.09;;;6.71;100.00
70254;BME280;57649;42.968;1.608;2023-12-14T01:50:59;97236.31;;;6.64;100.00
70254;BME280;57649;42.968;1.608;2023-12-14T01:53:25;97227.50;;;6.63;100.00
70254;BME280;57649;42.968;1.608;2023-12-14T01:55:50;97237.00;;;6.66;100.00
70254;BME280;57649;42.968;1.608;2023-12-14T01:58:16;97242.75;;;6.61;100.00
70254;BME280;57649;42.968;1.608;2023-12-14T02:03:18;97254.97;;;6.54;100.00
70254;BME280;57649;42.968;1.608;2023-12-14T02:05:44;97250.19;;;6.58;100.00
70254;BME280;57649;42.968;1.608;2023-12-14T02:08:09;97259.16;;;6.57;100.00
70254;BME280;57649;42.968;1.608;2023-12-14T02:10:35;97258.28;;;6.66;100.00
70254;BME280;57649;42.968;1.608;2023-12-14T02:13:03;97245.72;;;6.58;100.00
70254;BME280;57649;42.968;1.608;2023-12-14T02:15:28;97263.88;;;6.63;100.00
70254;BME280;57649;42.968;1.608;2023-12-14T02:17:54;97263.72;;;6.64;100.00
70254;BME280;57649;42.968;1.608;2023-12-14T02:20:20;97290.34;;;6.64;100.00
70254;BME280;57649;42.968;1.608;2023-12-14T02:22:55;97276.06;;;6.65;100.00
70254;BME280;57649;42.968;1.608;2023-12-14T02:25:22;97286.03;;;6.53;100.00
70254;BME280;57649;42.968;1.608;2023-12-14T02:27:49;97278.59;;;6.57;100.00
70254;BME280;57649;42.968;1.608;2023-12-14T02:30:16;97258.88;;;6.50;100.00
70254;BME280;57649;42.968;1.608;2023-12-14T02:32:42;97277.38;;;6.51;100.00
70254;BME280;57649;42.968;1.608;2023-12-14T02:35:08;97281.66;;;6.62;100.00
70254;BME280;57649;42.968;1.608;2023-12-14T02:37:34;97287.72;;;6.54;100.00
70254;BME280;57649;42.968;1.608;2023-12-14T02:40:02;97292.50;;;6.51;100.00
70254;BME280;57649;42.968;1.608;2023-12-14T02:42:28;97289.00;;;6.50;100.00
70254;BME280;57649;42.968;1.608;2023-12-14T02:44:54;97314.59;;;6.51;100.00
70254;BME280;57649;42.968;1.608;2023-12-14T02:47:19;97322.34;;;6.45;100.00
70254;BME280;57649;42.968;1.608;2023-12-14T02:49:45;97328.47;;;6.45;100.00
70254;BME280;57649;42.968;1.608;2023-12-14T02:52:10;97306.38;;;6.45;100.00
70254;BME280;57649;42.968;1.608;2023-12-14T02:54:39;97322.63;;;6.42;100.00
70254;BME280;57649;42.968;1.608;2023-12-14T02:57:05;97330.00;;;6.48;100.00
70254;BME280;57649;42.968;1.608;2023-12-14T02:59:30;97338.94;;;6.57;100.00
70254;BME280;57649;42.968;1.608;2023-12-14T03:01:56;97352.09;;;6.58;100.00
70254;BME280;57649;42.968;1.608;2023-12-14T03:04:21;97349.16;;;6.51;100.00
70254;BME280;57649;42.968;1.608;2023-12-14T03:06:47;97344.56;;;6.44;100.00
70254;BME280;57649;42.968;1.608;2023-12-14T03:09:12;97347.38;;;6.42;100.00
70254;BME280;57649;42.968;1.608;2023-12-14T03:11:38;97366.72;;;6.25;100.00
70254;BME280;57649;42.968;1.608;2023-12-14T03:14:03;97367.13;;;6.30;100.00
70254;BME280;57649;42.968;1.608;2023-12-14T03:16:29;97365.56;;;6.37;100.00
70254;BME280;57649;42.968;1.608;2023-12-14T03:18:54;97379.31;;;6.32;100.00
70254;BME280;57649;42.968;1.608;2023-12-14T03:21:21;97390.75;;;6.43;100.00
70254;BME280;57649;42.968;1.608;2023-12-14T03:23:47;97391.34;;;6.36;100.00
70254;BME280;57649;42.968;1.608;2023-12-14T03:26:12;97386.44;;;6.42;100.00
70254;BME280;57649;42.968;1.608;2023-12-14T03:28:38;97395.50;;;6.39;100.00
70254;BME280;57649;42.968;1.608;2023-12-14T03:31:03;97395.94;;;6.54;100.00
70254;BME280;57649;42.968;1.608;2023-12-14T03:33:29;97385.44;;;6.52;100.00
70254;BME280;57649;42.968;1.608;2023-12-14T03:35:55;97395.75;;;6.55;100.00
70254;BME280;57649;42.968;1.608;2023-12-14T03:38:20;97414.81;;;6.51;100.00
70254;BME280;57649;42.968;1.608;2023-12-14T03:40:45;97422.38;;;6.46;100.00
70254;BME280;57649;42.968;1.608;2023-12-14T03:43:11;97421.72;;;6.05;100.00
70254;BME280;57649;42.968;1.608;2023-12-14T03:45:36;97424.91;;;5.98;100.00
70254;BME280;57649;42.968;1.608;2023-12-14T03:48:02;97435.50;;;5.89;100.00
70254;BME280;57649;42.968;1.608;2023-12-14T03:50:27;97437.19;;;5.90;100.00
70254;BME280;57649;42.968;1.608;2023-12-14T03:52:54;97439.56;;;5.93;100.00
70254;BME280;57649;42.968;1.608;2023-12-14T03:55:20;97422.34;;;5.87;100.00
70254;BME280;57649;42.968;1.608;2023-12-14T03:57:45;97440.25;;;5.85;100.00
70254;BME280;57649;42.968;1.608;2023-12-14T04:00:12;97451.84;;;5.84;100.00
70254;BME280;57649;42.968;1.608;2023-12-14T04:02:38;97445.84;;;5.82;100.00
70254;BME280;57649;42.968;1.608;2023-12-14T04:05:05;97451.28;;;5.81;100.00
70254;BME280;57649;42.968;1.608;2023-12-14T04:07:31;97441.66;;;5.79;100.00
70254;BME280;57649;42.968;1.608;2023-12-14T04:09:56;97445.97;;;5.81;100.00
70254;BME280;57649;42.968;1.608;2023-12-14T04:12:22;97439.81;;;5.80;100.00
70254;BME280;57649;42.968;1.608;2023-12-14T04:14:47;97437.72;;;5.84;100.00
70254;BME280;57649;42.968;1.608;2023-12-14T04:17:12;97442.78;;;5.87;100.00
70254;BME280;57649;42.968;1.608;2023-12-14T04:19:39;97449.50;;;5.91;100.00
70254;BME280;57649;42.968;1.608;2023-12-14T04:22:05;97451.00;;;5.93;100.00
70254;BME280;57649;42.968;1.608;2023-12-14T04:24:30;97454.78;;;5.81;100.00
70254;BME280;57649;42.968;1.608;2023-12-14T04:26:55;97458.84;;;5.95;100.00
70254;BME280;57649;42.968;1.608;2023-12-14T04:29:21;97467.16;;;6.02;100.00
70254;BME280;57649;42.968;1.608;2023-12-14T04:31:46;97473.13;;;5.94;100.00
70254;BME280;57649;42.968;1.608;2023-12-14T04:34:12;97466.56;;;5.88;100.00
70254;BME280;57649;42.968;1.608;2023-12-14T04:36:42;97483.66;;;5.95;100.00
70254;BME280;57649;42.968;1.608;2023-12-14T04:39:08;97486.03;;;5.98;100.00
70254;BME280;57649;42.968;1.608;2023-12-14T04:41:33;97495.69;;;6.00;100.00
70254;BME280;57649;42.968;1.608;2023-12-14T04:43:59;97498.22;;;6.01;100.00
70254;BME280;57649;42.968;1.608;2023-12-14T04:46:24;97502.41;;;6.04;100.00
70254;BME280;57649;42.968;1.608;2023-12-14T04:48:49;97502.56;;;6.12;100.00
70254;BME280;57649;42.968;1.608;2023-12-14T04:51:15;97519.75;;;5.98;100.00
70254;BME280;57649;42.968;1.608;2023-12-14T04:53:40;97519.34;;;6.03;100.00
70254;BME280;57649;42.968;1.608;2023-12-14T04:56:10;97527.59;;;6.00;100.00
70254;BME280;57649;42.968;1.608;2023-12-14T04:58:35;97523.22;;;5.98;100.00
70254;BME280;57649;42.968;1.608;2023-12-14T05:01:01;97536.03;;;5.93;100.00
70254;BME280;57649;42.968;1.608;2023-12-14T05:03:26;97541.78;;;5.89;100.00
70254;BME280;57649;42.968;1.608;2023-12-14T05:05:51;97545.13;;;5.81;100.00
70254;BME280;57649;42.968;1.608;2023-12-14T05:08:17;97545.63;;;5.75;100.00
70254;BME280;57649;42.968;1.608;2023-12-14T05:10:42;97537.16;;;5.81;100.00
70254;BME280;57649;42.968;1.608;2023-12-14T05:13:08;97558.78;;;5.76;100.00
70254;BME280;57649;42.968;1.608;2023-12-14T05:15:33;97573.72;;;5.68;100.00
70254;BME280;57649;42.968;1.608;2023-12-14T05:17:59;97569.38;;;5.67;100.00
70254;BME280;57649;42.968;1.608;2023-12-14T05:20:24;97596.41;;;5.72;100.00
70254;BME280;57649;42.968;1.608;2023-12-14T05:22:50;97584.78;;;5.73;100.00
70254;BME280;57649;42.968;1.608;2023-12-14T05:25:15;97593.38;;;5.55;100.00
70254;BME280;57649;42.968;1.608;2023-12-14T05:27:40;97594.00;;;5.69;100.00
70254;BME280;57649;42.968;1.608;2023-12-14T05:30:06;97605.75;;;5.66;100.00
70254;BME280;57649;42.968;1.608;2023-12-14T05:32:32;97599.41;;;5.57;100.00
70254;BME280;57649;42.968;1.608;2023-12-14T05:34:57;97592.72;;;5.42;100.00
70254;BME280;57649;42.968;1.608;2023-12-14T05:37:24;97601.63;;;5.31;100.00
70254;BME280;57649;42.968;1.608;2023-12-14T05:39:50;97616.00;;;5.50;100.00
70254;BME280;57649;42.968;1.608;2023-12-14T05:42:16;97610.09;;;5.46;100.00
70254;BME280;57649;42.968;1.608;2023-12-14T05:44:42;97605.50;;;5.48;100.00
70254;BME280;57649;42.968;1.608;2023-12-14T05:47:09;97614.63;;;5.55;100.00
70254;BME280;57649;42.968;1.608;2023-12-14T05:49:35;97628.34;;;5.61;100.00
70254;BME280;57649;42.968;1.608;2023-12-14T05:52:00;97617.75;;;5.39;100.00
70254;BME280;57649;42.968;1.608;2023-12-14T05:54:26;97623.69;;;5.53;100.00
70254;BME280;57649;42.968;1.608;2023-12-14T05:56:51;97632.69;;;5.62;100.00
70254;BME280;57649;42.968;1.608;2023-12-14T05:59:17;97631.41;;;5.56;100.00
70254;BME280;57649;42.968;1.608;2023-12-14T06:01:42;97632.56;;;5.63;100.00
70254;BME280;57649;42.968;1.608;2023-12-14T06:04:08;97642.59;;;5.59;100.00
70254;BME280;57649;42.968;1.608;2023-12-14T06:06:33;97651.53;;;5.58;100.00
70254;BME280;57649;42.968;1.608;2023-12-14T06:08:59;97661.53;;;5.66;100.00
70254;BME280;57649;42.968;1.608;2023-12-14T06:11:24;97668.13;;;5.72;100.00
70254;BME280;57649;42.968;1.608;2023-12-14T06:13:50;97676.09;;;5.72;100.00
70254;BME280;57649;42.968;1.608;2023-12-14T06:16:15;97685.59;;;5.74;100.00
70254;BME280;57649;42.968;1.608;2023-12-14T06:18:41;97681.78;;;5.67;100.00
70254;BME280;57649;42.968;1.608;2023-12-14T06:21:08;97700.94;;;5.71;100.00
70254;BME280;57649;42.968;1.608;2023-12-14T06:23:35;97695.75;;;5.69;100.00
70254;BME280;57649;42.968;1.608;2023-12-14T06:26:02;97693.75;;;5.62;100.00
70254;BME280;57649;42.968;1.608;2023-12-14T06:28:29;97713.38;;;5.49;100.00
70254;BME280;57649;42.968;1.608;2023-12-14T06:30:56;97716.84;;;5.61;100.00
70254;BME280;57649;42.968;1.608;2023-12-14T06:33:21;97707.34;;;5.47;100.00
70254;BME280;57649;42.968;1.608;2023-12-14T06:35:47;97729.31;;;5.49;100.00
70254;BME280;57649;42.968;1.608;2023-12-14T06:38:13;97725.81;;;5.49;100.00
70254;BME280;57649;42.968;1.608;2023-12-14T06:40:38;97733.41;;;5.53;100.00
70254;BME280;57649;42.968;1.608;2023-12-14T06:43:07;97748.94;;;5.58;100.00
70254;BME280;57649;42.968;1.608;2023-12-14T06:45:32;97750.53;;;5.61;100.00
70254;BME280;57649;42.968;1.608;2023-12-14T06:47:58;97745.81;;;5.64;100.00
70254;BME280;57649;42.968;1.608;2023-12-14T06:50:23;97736.91;;;5.75;100.00
70254;BME280;57649;42.968;1.608;2023-12-14T06:52:48;97749.41;;;5.84;100.00
70254;BME280;57649;42.968;1.608;2023-12-14T06:55:14;97756.78;;;5.81;100.00
70254;BME280;57649;42.968;1.608;2023-12-14T06:57:43;97763.28;;;5.67;100.00
70254;BME280;57649;42.968;1.608;2023-12-14T07:00:09;97766.72;;;5.78;100.00
70254;BME280;57649;42.968;1.608;2023-12-14T07:02:35;97761.22;;;5.70;100.00
70254;BME280;57649;42.968;1.608;2023-12-14T07:05:00;97760.69;;;5.76;100.00
70254;BME280;57649;42.968;1.608;2023-12-14T07:07:26;97777.50;;;5.77;100.00
70254;BME280;57649;42.968;1.608;2023-12-14T07:09:54;97769.19;;;5.91;100.00
70254;BME280;57649;42.968;1.608;2023-12-14T07:12:19;97779.06;;;6.01;100.00
70254;BME280;57649;42.968;1.608;2023-12-14T07:14:45;97778.28;;;6.10;100.00
70254;BME280;57649;42.968;1.608;2023-12-14T07:17:10;97788.41;;;6.16;100.00
70254;BME280;57649;42.968;1.608;2023-12-14T07:19:36;97797.34;;;6.15;100.00
70254;BME280;57649;42.968;1.608;2023-12-14T07:22:01;97783.59;;;6.10;100.00
70254;BME280;57649;42.968;1.608;2023-12-14T07:24:27;97818.31;;;6.08;100.00
70254;BME280;57649;42.968;1.608;2023-12-14T07:26:52;97813.88;;;6.19;100.00
70254;BME280;57649;42.968;1.608;2023-12-14T07:29:18;97812.53;;;6.03;100.00
70254;BME280;57649;42.968;1.608;2023-12-14T07:31:43;97825.56;;;5.95;100.00
70254;BME280;57649;42.968;1.608;2023-12-14T07:34:08;97824.56;;;6.07;100.00
70254;BME280;57649;42.968;1.608;2023-12-14T07:36:34;97838.00;;;6.06;100.00
70254;BME280;57649;42.968;1.608;2023-12-14T07:38:59;97835.22;;;6.07;100.00
70254;BME280;57649;42.968;1.608;2023-12-14T07:41:26;97859.19;;;6.17;100.00
70254;BME280;57649;42.968;1.608;2023-12-14T07:43:55;97855.78;;;5.94;100.00
70254;BME280;57649;42.968;1.608;2023-12-14T07:46:21;97860.25;;;6.05;100.00
70254;BME280;57649;42.968;1.608;2023-12-14T07:48:46;97864.78;;;6.14;100.00
70254;BME280;57649;42.968;1.608;2023-12-14T07:51:12;97875.97;;;5.96;100.00
70254;BME280;57649;42.968;1.608;2023-12-14T07:53:38;97868.34;;;6.03;100.00
70254;BME280;57649;42.968;1.608;2023-12-14T07:56:04;97881.91;;;6.21;100.00
70254;BME280;57649;42.968;1.608;2023-12-14T07:58:29;97896.16;;;6.20;100.00
70254;BME280;57649;42.968;1.608;2023-12-14T08:00:55;97903.31;;;6.20;100.00
70254;BME280;57649;42.968;1.608;2023-12-14T08:03:21;97897.69;;;6.02;100.00
70254;BME280;57649;42.968;1.608;2023-12-14T08:05:50;97902.25;;;6.11;100.00
70254;BME280;57649;42.968;1.608;2023-12-14T08:08:16;97894.22;;;6.22;100.00
70254;BME280;57649;42.968;1.608;2023-12-14T08:10:41;97911.53;;;6.16;100.00
70254;BME280;57649;42.968;1.608;2023-12-14T08:13:07;97908.44;;;6.00;100.00
70254;BME280;57649;42.968;1.608;2023-12-14T08:15:32;97910.28;;;6.00;100.00
70254;BME280;57649;42.968;1.608;2023-12-14T08:17:58;97912.22;;;5.97;100.00
70254;BME280;57649;42.968;1.608;2023-12-14T08:20:23;97925.94;;;6.14;100.00
70254;BME280;57649;42.968;1.608;2023-12-14T08:22:48;97932.13;;;6.03;100.00
70254;BME280;57649;42.968;1.608;2023-12-14T08:25:14;97930.53;;;6.01;100.00
70254;BME280;57649;42.968;1.608;2023-12-14T08:27:43;97913.88;;;5.98;100.00
70254;BME280;57649;42.968;1.608;2023-12-14T08:30:12;97931.47;;;6.11;100.00
70254;BME280;57649;42.968;1.608;2023-12-14T08:32:38;97937.44;;;6.03;100.00
70254;BME280;57649;42.968;1.608;2023-12-14T08:35:04;97945.38;;;6.14;100.00
70254;BME280;57649;42.968;1.608;2023-12-14T08:37:29;97931.88;;;6.06;100.00
70254;BME280;57649;42.968;1.608;2023-12-14T08:39:55;97946.13;;;6.05;100.00
70254;BME280;57649;42.968;1.608;2023-12-14T08:42:21;97943.00;;;6.00;100.00
70254;BME280;57649;42.968;1.608;2023-12-14T08:44:46;97948.31;;;6.00;100.00
70254;BME280;57649;42.968;1.608;2023-12-14T08:47:11;97959.53;;;6.04;100.00
70254;BME280;57649;42.968;1.608;2023-12-14T08:49:37;97960.97;;;6.08;100.00
70254;BME280;57649;42.968;1.608;2023-12-14T08:52:03;97951.09;;;5.98;100.00
70254;BME280;57649;42.968;1.608;2023-12-14T08:54:29;97968.50;;;6.03;100.00
70254;BME280;57649;42.968;1.608;2023-12-14T08:56:55;97972.13;;;6.02;100.00
70254;BME280;57649;42.968;1.608;2023-12-14T08:59:20;97983.00;;;5.87;100.00
70254;BME280;57649;42.968;1.608;2023-12-14T09:01:46;97982.03;;;5.88;100.00
70254;BME280;57649;42.968;1.608;2023-12-14T09:04:11;97979.13;;;6.03;100.00
70254;BME280;57649;42.968;1.608;2023-12-14T09:06:37;97981.16;;;6.10;100.00
70254;BME280;57649;42.968;1.608;2023-12-14T09:09:02;97995.78;;;6.05;100.00
70254;BME280;57649;42.968;1.608;2023-12-14T09:11:28;98006.38;;;6.16;100.00
70254;BME280;57649;42.968;1.608;2023-12-14T09:13:54;98007.03;;;6.08;100.00
70254;BME280;57649;42.968;1.608;2023-12-14T09:16:20;98019.28;;;6.21;100.00
70254;BME280;57649;42.968;1.608;2023-12-14T09:18:48;98021.16;;;6.09;100.00
70254;BME280;57649;42.968;1.608;2023-12-14T09:21:16;98017.63;;;6.20;100.00
70254;BME280;57649;42.968;1.608;2023-12-14T09:23:42;98017.75;;;6.18;100.00
70254;BME280;57649;42.968;1.608;2023-12-14T09:26:07;98030.16;;;6.29;100.00
70254;BME280;57649;42.968;1.608;2023-12-14T09:28:32;98032.47;;;6.22;100.00
70254;BME280;57649;42.968;1.608;2023-12-14T09:30:58;98032.09;;;6.27;100.00
70254;BME280;57649;42.968;1.608;2023-12-14T09:33:23;98037.53;;;6.25;100.00
70254;BME280;57649;42.968;1.608;2023-12-14T09:35:49;98045.75;;;6.22;100.00
70254;BME280;57649;42.968;1.608;2023-12-14T09:38:14;98037.81;;;6.11;100.00
70254;BME280;57649;42.968;1.608;2023-12-14T09:40:43;98054.59;;;6.11;100.00
70254;BME280;57649;42.968;1.608;2023-12-14T09:43:09;98063.19;;;6.04;100.00
70254;BME280;57649;42.968;1.608;2023-12-14T09:45:36;98064.88;;;6.16;100.00
70254;BME280;57649;42.968;1.608;2023-12-14T09:48:03;98063.44;;;6.12;100.00
70254;BME280;57649;42.968;1.608;2023-12-14T09:50:30;98071.88;;;6.17;100.00
70254;BME280;57649;42.968;1.608;2023-12-14T09:52:57;98078.16;;;6.16;100.00
70254;BME280;57649;42.968;1.608;2023-12-14T09:55:22;98090.34;;;6.19;100.00
70254;BME280;57649;42.968;1.608;2023-12-14T09:57:47;98099.66;;;6.24;100.00
70254;BME280;57649;42.968;1.608;2023-12-14T10:00:32;98106.16;;;6.31;100.00
70254;BME280;57649;42.968;1.608;2023-12-14T10:03:27;98103.03;;;6.38;100.00
70254;BME280;57649;42.968;1.608;2023-12-14T10:05:57;98108.06;;;6.41;100.00
70254;BME280;57649;42.968;1.608;2023-12-14T10:08:24;98121.28;;;6.31;100.00
70254;BME280;57649;42.968;1.608;2023-12-14T10:10:53;98111.38;;;6.33;100.00
70254;BME280;57649;42.968;1.608;2023-12-14T10:13:20;98127.16;;;6.46;100.00
70254;BME280;57649;42.968;1.608;2023-12-14T10:15:47;98124.50;;;6.46;100.00
70254;BME280;57649;42.968;1.608;2023-12-14T10:18:23;98120.53;;;6.40;100.00
70254;BME280;57649;42.968;1.608;2023-12-14T10:20:52;98131.53;;;6.35;100.00
70254;BME280;57649;42.968;1.608;2023-12-14T10:23:18;98143.16;;;6.34;100.00
70254;BME280;57649;42.968;1.608;2023-12-14T10:25:44;98136.63;;;6.39;100.00
70254;BME280;57649;42.968;1.608;2023-12-14T10:28:13;98136.63;;;6.39;100.00
70254;BME280;57649;42.968;1.608;2023-12-14T10:30:41;98140.00;;;6.41;100.00
70254;BME280;57649;42.968;1.608;2023-12-14T10:33:07;98139.38;;;6.48;100.00
70254;BME280;57649;42.968;1.608;2023-12-14T10:35:33;98145.91;;;6.44;100.00
70254;BME280;57649;42.968;1.608;2023-12-14T10:38:03;98145.03;;;6.55;100.00
70254;BME280;57649;42.968;1.608;2023-12-14T10:40:30;98141.06;;;6.49;96.66
70254;BME280;57649;42.968;1.608;2023-12-14T10:42:58;98138.72;;;6.67;100.00
70254;BME280;57649;42.968;1.608;2023-12-14T10:45:29;98124.88;;;6.85;100.00
70254;BME280;57649;42.968;1.608;2023-12-14T10:47:55;98133.31;;;6.90;100.00
70254;BME280;57649;42.968;1.608;2023-12-14T10:50:24;98140.53;;;6.99;96.25
70254;BME280;57649;42.968;1.608;2023-12-14T10:52:50;98136.41;;;7.06;97.36
70254;BME280;57649;42.968;1.608;2023-12-14T10:55:22;98139.72;;;7.20;96.80
70254;BME280;57649;42.968;1.608;2023-12-14T10:57:52;98137.53;;;7.25;96.02
70254;BME280;57649;42.968;1.608;2023-12-14T11:00:18;98135.50;;;7.17;97.99
70254;BME280;57649;42.968;1.608;2023-12-14T11:02:46;98131.59;;;7.21;95.14
70254;BME280;57649;42.968;1.608;2023-12-14T11:05:13;98112.03;;;7.74;91.44
70254;BME280;57649;42.968;1.608;2023-12-14T11:07:54;98118.25;;;7.84;90.00
70254;BME280;57649;42.968;1.608;2023-12-14T11:10:27;98120.38;;;8.31;89.31
70254;BME280;57649;42.968;1.608;2023-12-14T11:13:00;98112.81;;;7.96;85.29
70254;BME280;57649;42.968;1.608;2023-12-14T11:15:28;98118.16;;;8.36;84.47
70254;BME280;57649;42.968;1.608;2023-12-14T11:18:21;98092.38;;;8.56;87.80
70254;BME280;57649;42.968;1.608;2023-12-14T11:20:51;98110.34;;;8.54;80.36
70254;BME280;57649;42.968;1.608;2023-12-14T11:23:30;98084.81;;;8.61;82.92
70254;BME280;57649;42.968;1.608;2023-12-14T11:26:01;98091.81;;;8.62;81.84
70254;BME280;57649;42.968;1.608;2023-12-14T11:28:30;98080.47;;;8.70;84.13
70254;BME280;57649;42.968;1.608;2023-12-14T11:30:55;98099.16;;;9.09;87.15
70254;BME280;57649;42.968;1.608;2023-12-14T11:33:21;98097.72;;;9.24;80.50
70254;BME280;57649;42.968;1.608;2023-12-14T11:35:47;98099.56;;;8.85;82.41
70254;BME280;57649;42.968;1.608;2023-12-14T11:38:12;98086.22;;;8.95;82.05
70254;BME280;57649;42.968;1.608;2023-12-14T11:40:39;98094.22;;;9.14;84.66
70254;BME280;57649;42.968;1.608;2023-12-14T11:43:05;98096.59;;;9.08;78.02
70254;BME280;57649;42.968;1.608;2023-12-14T11:45:35;98092.50;;;9.23;77.03
70254;BME280;57649;42.968;1.608;2023-12-14T11:48:02;98090.66;;;9.33;76.49
70254;BME280;57649;42.968;1.608;2023-12-14T11:50:30;98105.94;;;9.60;81.20
70254;BME280;57649;42.968;1.608;2023-12-14T11:52:55;98100.22;;;9.36;74.83
70254;BME280;57649;42.968;1.608;2023-12-14T11:55:21;98097.69;;;9.44;72.65
70254;BME280;57649;42.968;1.608;2023-12-14T11:57:48;98101.63;;;9.30;76.03
70254;BME280;57649;42.968;1.608;2023-12-14T12:00:14;98099.25;;;9.37;72.49
70254;BME280;57649;42.968;1.608;2023-12-14T12:02:40;98107.28;;;9.27;74.15
70254;BME280;57649;42.968;1.608;2023-12-14T12:05:09;98091.94;;;9.29;72.36
70254;BME280;57649;42.968;1.608;2023-12-14T12:07:39;98115.13;;;9.38;78.40
70254;BME280;57649;42.968;1.608;2023-12-14T12:10:05;98102.91;;;9.26;71.78
70254;BME280;57649;42.968;1.608;2023-12-14T12:12:33;98109.13;;;9.17;72.91
70254;BME280;57649;42.968;1.608;2023-12-14T12:14:59;98112.19;;;9.32;76.11
70254;BME280;57649;42.968;1.608;2023-12-14T12:17:24;98113.47;;;9.28;74.17
70254;BME280;57649;42.968;1.608;2023-12-14T12:19:51;98125.25;;;9.44;77.78
70254;BME280;57649;42.968;1.608;2023-12-14T12:22:16;98115.94;;;9.49;74.08
70254;BME280;57649;42.968;1.608;2023-12-14T12:24:42;98123.59;;;9.24;68.14
70254;BME280;57649;42.968;1.608;2023-12-14T12:27:07;98132.19;;;8.98;71.46
70254;BME280;57649;42.968;1.608;2023-12-14T12:29:34;98125.28;;;9.05;76.01
70254;BME280;57649;42.968;1.608;2023-12-14T12:31:59;98136.38;;;9.01;75.45
70254;BME280;57649;42.968;1.608;2023-12-14T12:34:25;98137.50;;;8.98;76.16
70254;BME280;57649;42.968;1.608;2023-12-14T12:36:50;98144.97;;;9.24;75.65
70254;BME280;57649;42.968;1.608;2023-12-14T12:39:16;98147.50;;;9.06;74.30
70254;BME280;57649;42.968;1.608;2023-12-14T12:41:42;98128.66;;;8.69;74.27
70254;BME280;57649;42.968;1.608;2023-12-14T12:44:08;98142.66;;;8.51;74.13
70254;BME280;57649;42.968;1.608;2023-12-14T12:46:37;98134.81;;;8.79;75.26
70254;BME280;57649;42.968;1.608;2023-12-14T12:49:04;98128.66;;;9.08;77.39
70254;BME280;57649;42.968;1.608;2023-12-14T12:51:31;98143.72;;;9.18;73.31
70254;BME280;57649;42.968;1.608;2023-12-14T12:53:58;98127.53;;;8.91;71.01
70254;BME280;57649;42.968;1.608;2023-12-14T12:56:25;98134.44;;;9.13;72.09
70254;BME280;57649;42.968;1.608;2023-12-14T12:58:50;98134.41;;;9.22;73.38
70254;BME280;57649;42.968;1.608;2023-12-14T13:01:22;98132.56;;;9.42;71.67